Time;durP1;ratioP1;P1;durP2;ratioP2;P2;SDS_P1;SDS_P2;PMS_P1;PMS_P2;Temp;Humidity;BMP_temperature;BMP_pressure;BME280_temperature;BME280_humidity;BME280_pressure;Samples;Min_cycle;Max_cycle;Signal;HPM_P1;HPM_P2
2022/10/03 00:01:34;;;;;;;1.15;0.75;;;13.70;99.90;;;;;;4988147;28;20033;-77
2022/10/03 00:04:21;;;;;;;1.13;0.50;;;13.70;99.90;;;;;;4986668;28;20026;-72
2022/10/03 00:07:26;;;;;;;0.65;0.50;;;13.70;99.90;;;;;;4986035;28;20019;-76
2022/10/03 00:10:15;;;;;;;0.93;0.60;;;13.70;99.90;;;;;;4944729;29;20026;-74
2022/10/03 00:13:09;;;;;;;4.15;0.60;;;13.70;99.90;;;;;;4984429;28;20086;-73
2022/10/03 00:15:41;;;;;;;1.15;0.57;;;13.90;99.90;;;;;;4986672;28;20026;-74
2022/10/03 00:18:11;;;;;;;3.15;0.88;;;14.20;99.90;;;;;;4985785;28;20031;-74
2022/10/03 00:20:44;;;;;;;0.75;0.43;;;14.30;99.90;;;;;;4986956;28;20026;-74
2022/10/03 00:23:40;;;;;;;2.58;0.38;;;14.40;99.90;;;;;;4985965;28;20063;-73
2022/10/03 00:26:27;;;;;;;0.57;0.43;;;14.40;99.90;;;;;;4984442;28;20039;-74
2022/10/03 00:28:57;;;;;;;1.00;0.57;;;14.40;99.90;;;;;;4986202;28;20080;-75
2022/10/03 00:31:37;;;;;;;1.58;0.50;;;14.50;99.90;;;;;;4985372;28;20393;-75
2022/10/03 00:34:29;;;;;;;1.42;0.40;;;14.50;99.90;;;;;;4985455;28;20046;-75
2022/10/03 00:37:04;;;;;;;1.80;0.55;;;14.40;99.90;;;;;;4987726;28;20482;-71
2022/10/03 00:39:34;;;;;;;4.00;0.60;;;14.40;99.90;;;;;;4987654;28;20084;-72
2022/10/03 00:42:16;;;;;;;0.50;0.22;;;14.40;99.90;;;;;;4986549;28;20023;-73
2022/10/03 00:45:11;;;;;;;0.55;0.30;;;14.30;99.90;;;;;;4986435;28;20055;-71
2022/10/03 00:48:00;;;;;;;3.47;0.40;;;14.30;99.90;;;;;;4986512;28;20097;-73
2022/10/03 00:50:50;;;;;;;0.45;0.30;;;14.40;99.90;;;;;;4986162;28;20026;-73
2022/10/03 00:53:36;;;;;;;0.88;0.40;;;14.50;99.90;;;;;;5000846;28;20031;-72
2022/10/03 00:56:14;;;;;;;1.50;0.50;;;14.50;99.90;;;;;;4986653;28;20077;-73
2022/10/03 00:58:59;;;;;;;0.88;0.43;;;14.60;99.90;;;;;;4986606;28;20026;-73
2022/10/03 01:01:41;;;;;;;2.00;0.60;;;14.70;99.90;;;;;;4987108;28;20030;-72
2022/10/03 01:04:28;;;;;;;1.00;0.35;;;14.80;99.90;;;;;;4986988;28;20035;-72
2022/10/03 01:06:58;;;;;;;0.60;0.40;;;15.00;99.90;;;;;;4986537;28;20494;-74
2022/10/03 01:09:56;;;;;;;0.60;0.40;;;15.10;99.90;;;;;;4986837;28;20030;-73
2022/10/03 01:12:52;;;;;;;0.98;0.50;;;15.30;99.90;;;;;;4985887;28;20105;-73
2022/10/03 01:15:30;;;;;;;0.75;0.30;;;15.40;99.90;;;;;;4986991;28;20118;-74
2022/10/03 01:18:04;;;;;;;1.17;0.40;;;15.30;99.90;;;;;;4984349;28;20027;-74
2022/10/03 01:20:51;;;;;;;2.15;0.85;;;15.30;99.90;;;;;;4984772;28;20026;-73
2022/10/03 01:23:21;;;;;;;0.60;0.40;;;15.40;99.90;;;;;;4985253;28;20033;-72
2022/10/03 01:26:13;;;;;;;1.55;0.50;;;15.40;99.90;;;;;;4984709;28;20492;-74
2022/10/03 01:32:33;;;;;;;0.88;0.28;;;15.40;99.90;;;;;;4942868;29;20110;-73
2022/10/03 01:35:24;;;;;;;0.63;0.40;;;15.70;99.90;;;;;;4982977;28;20034;-73
2022/10/03 01:38:08;;;;;;;0.88;0.40;;;15.80;99.90;;;;;;4989203;28;20034;-72
2022/10/03 01:40:47;;;;;;;1.52;0.60;;;16.00;99.90;;;;;;4989760;28;20018;-72
2022/10/03 01:43:20;;;;;;;0.40;0.30;;;16.20;99.90;;;;;;4989291;28;20550;-73
2022/10/03 01:46:18;;;;;;;0.93;0.30;;;16.30;99.90;;;;;;4988556;28;20041;-73
2022/10/03 01:48:55;;;;;;;1.15;0.40;;;16.40;99.90;;;;;;4988208;28;20022;-72
2022/10/03 01:51:34;;;;;;;1.15;0.82;;;16.40;99.90;;;;;;4995196;28;20033;-69
2022/10/03 01:54:15;;;;;;;0.82;0.40;;;16.30;99.90;;;;;;4995307;28;20049;-70
2022/10/03 01:57:09;;;;;;;1.33;0.60;;;16.10;99.90;;;;;;4994890;28;20034;-71
2022/10/03 01:59:52;;;;;;;1.17;0.30;;;16.10;99.90;;;;;;4995275;28;20026;-74
2022/10/03 02:02:25;;;;;;;1.55;0.40;;;16.10;99.90;;;;;;4995493;28;20109;-73
2022/10/03 02:05:08;;;;;;;0.80;0.55;;;16.00;99.90;;;;;;4995067;28;20069;-72
2022/10/03 02:08:04;;;;;;;1.88;0.52;;;15.90;99.90;;;;;;4994866;28;20023;-71
2022/10/03 02:10:56;;;;;;;0.70;0.50;;;16.00;99.90;;;;;;4992070;28;20547;-71
2022/10/03 02:13:38;;;;;;;0.47;0.30;;;16.10;99.90;;;;;;4995021;28;20023;-73
2022/10/03 02:16:25;;;;;;;1.30;0.63;;;16.10;99.90;;;;;;4994769;28;20029;-73
2022/10/03 02:19:20;;;;;;;0.25;0.22;;;16.00;99.90;;;;;;4983667;28;20039;-72
2022/10/03 02:21:59;;;;;;;0.38;0.30;;;15.90;99.90;;;;;;4994937;28;20030;-70
2022/10/03 02:24:41;;;;;;;0.98;0.50;;;15.90;99.90;;;;;;4994835;28;20038;-70
2022/10/03 02:27:26;;;;;;;1.00;0.50;;;15.80;99.90;;;;;;4994843;28;20097;-70
2022/10/03 02:30:19;;;;;;;0.50;0.30;;;15.80;99.90;;;;;;4994480;28;20053;-69
2022/10/03 02:32:58;;;;;;;2.00;0.60;;;15.80;99.90;;;;;;4994797;28;20034;-70
2022/10/03 02:35:51;;;;;;;0.65;0.30;;;15.80;99.90;;;;;;4991510;28;20491;-69
2022/10/03 02:38:29;;;;;;;1.95;0.38;;;15.80;99.90;;;;;;4987260;28;20521;-70
2022/10/03 02:41:12;;;;;;;1.00;0.28;;;15.90;99.90;;;;;;4985339;28;20022;-73
2022/10/03 02:44:12;;;;;;;2.20;0.50;;;15.90;99.90;;;;;;4994173;28;20015;-73
2022/10/03 02:47:00;;;;;;;1.45;0.52;;;16.00;99.90;;;;;;4990887;28;20029;-72
2022/10/03 02:50:09;;;;;;;2.03;0.30;;;16.20;99.90;;;;;;4985534;28;20022;-69
2022/10/03 02:52:56;;;;;;;0.63;0.40;;;16.30;99.90;;;;;;4951878;28;20062;-72
2022/10/03 02:55:53;;;;;;;1.25;0.60;;;16.50;99.90;;;;;;4983723;28;20075;-70
2022/10/03 02:58:50;;;;;;;0.30;0.28;;;16.60;99.90;;;;;;4984471;28;20022;-70
2022/10/03 03:01:46;;;;;;;1.50;0.65;;;16.50;99.90;;;;;;4985230;28;20054;-71
2022/10/03 03:04:50;;;;;;;1.30;0.43;;;16.50;99.90;;;;;;4964103;28;20050;-70
2022/10/03 03:07:43;;;;;;;1.40;0.40;;;16.40;99.90;;;;;;4985090;28;20340;-73
2022/10/03 03:10:33;;;;;;;3.63;0.38;;;16.60;99.90;;;;;;4982965;28;20022;-75
2022/10/03 03:13:47;;;;;;;2.28;0.40;;;16.70;99.90;;;;;;4983522;28;20034;-70
2022/10/03 03:17:00;;;;;;;3.72;0.30;;;16.90;99.90;;;;;;4936412;29;20079;-70
2022/10/03 03:19:35;;;;;;;1.48;0.30;;;17.00;99.90;;;;;;4912039;29;20062;-71
2022/10/03 03:22:36;;;;;;;1.67;0.55;;;17.10;99.90;;;;;;4967845;28;20544;-71
2022/10/03 03:25:29;;;;;;;0.50;0.22;;;17.30;99.90;;;;;;4973589;28;20043;-71
2022/10/03 03:28:18;;;;;;;1.05;0.40;;;17.40;99.90;;;;;;4972519;28;20015;-70
2022/10/03 03:31:04;;;;;;;0.75;0.25;;;17.30;99.90;;;;;;4970581;28;20047;-71
2022/10/03 03:33:52;;;;;;;1.83;0.80;;;17.40;99.90;;;;;;4971036;28;20023;-71
2022/10/03 03:36:34;;;;;;;1.17;0.50;;;17.60;99.90;;;;;;4971224;28;20057;-71
2022/10/03 03:39:28;;;;;;;1.60;0.25;;;17.60;99.90;;;;;;4971188;28;20035;-70
2022/10/03 03:42:16;;;;;;;3.55;0.88;;;17.50;99.90;;;;;;4971574;28;20026;-72
2022/10/03 03:44:56;;;;;;;1.33;0.35;;;17.40;99.90;;;;;;4973649;28;20493;-71
2022/10/03 03:47:47;;;;;;;3.53;0.30;;;17.20;99.90;;;;;;4974353;28;20118;-71
2022/10/03 03:50:39;;;;;;;0.85;0.30;;;17.00;99.90;;;;;;4974401;28;20023;-70
2022/10/03 03:53:25;;;;;;;2.38;0.55;;;16.80;99.90;;;;;;4974294;28;20035;-70
2022/10/03 03:55:53;;;;;;;;;;;16.80;99.90;;;;;;4975381;28;20023;-71
2022/10/03 03:58:26;;;;;;;1.10;0.47;;;16.80;99.90;;;;;;4974446;28;19911;-70
2022/10/03 04:01:26;;;;;;;0.65;0.35;;;16.80;99.90;;;;;;4974241;28;20460;-73
2022/10/03 04:04:28;;;;;;;1.88;0.77;;;17.10;99.90;;;;;;4974264;28;20510;-70
2022/10/03 04:07:36;;;;;;;0.25;0.20;;;17.10;99.90;;;;;;4975852;28;20027;-73
2022/10/03 04:10:22;;;;;;;0.95;0.35;;;17.20;99.90;;;;;;4977809;28;20484;-71
2022/10/03 04:13:06;;;;;;;;;;;17.20;99.90;;;;;;4978435;28;20495;-72
2022/10/03 04:16:04;;;;;;;0.88;0.52;;;17.20;99.90;;;;;;4978210;28;19913;-71
2022/10/03 04:18:58;;;;;;;1.08;0.45;;;17.30;99.90;;;;;;4977533;28;20034;-71
2022/10/03 04:21:51;;;;;;;1.00;0.43;;;17.50;99.90;;;;;;4977588;28;20058;-72
2022/10/03 04:24:56;;;;;;;0.88;0.40;;;17.50;99.90;;;;;;4977760;28;20451;-73
2022/10/03 04:27:49;;;;;;;0.50;0.40;;;17.60;99.90;;;;;;4977699;28;20125;-71
2022/10/03 04:30:29;;;;;;;1.25;0.68;;;17.70;99.90;;;;;;4977196;28;20094;-71
2022/10/03 04:33:24;;;;;;;0.28;0.20;;;17.90;99.90;;;;;;4977411;28;20441;-71
2022/10/03 04:36:07;;;;;;;1.35;0.40;;;18.10;99.90;;;;;;4977396;28;20037;-70
2022/10/03 04:38:56;;;;;;;0.70;0.32;;;18.30;99.90;;;;;;4977338;28;20031;-70
2022/10/03 04:41:42;;;;;;;3.03;0.70;;;18.60;99.90;;;;;;4975976;28;20054;-71
2022/10/03 04:44:37;;;;;;;1.75;0.63;;;18.70;99.90;;;;;;4977160;28;20373;-70
2022/10/03 04:47:14;;;;;;;1.80;0.63;;;18.70;99.90;;;;;;4977089;28;20027;-71
2022/10/03 04:50:13;;;;;;;0.93;0.30;;;18.60;99.90;;;;;;4977456;28;20469;-71
2022/10/03 04:53:03;;;;;;;1.33;0.40;;;18.10;99.90;;;;;;4977243;28;20069;-70
2022/10/03 04:55:40;;;;;;;1.98;0.30;;;18.00;99.90;;;;;;4977065;28;20027;-72
2022/10/03 04:58:19;;;;;;;3.28;0.40;;;18.10;99.90;;;;;;4977609;28;20416;-71
2022/10/03 05:01:07;;;;;;;0.45;0.32;;;18.00;99.90;;;;;;4976982;28;20018;-70
2022/10/03 05:03:47;;;;;;;0.98;0.38;;;17.90;99.90;;;;;;4977112;28;20041;-71
2022/10/03 05:06:50;;;;;;;2.92;0.20;;;17.70;99.90;;;;;;4977088;28;20027;-70
2022/10/03 05:09:37;;;;;;;0.38;0.35;;;17.70;99.90;;;;;;4976764;28;20484;-69
2022/10/03 05:12:31;;;;;;;2.05;0.52;;;17.60;99.90;;;;;;4976890;28;20085;-70
2022/10/03 05:15:29;;;;;;;0.45;0.20;;;17.70;99.90;;;;;;4976679;28;20543;-70
2022/10/03 05:18:05;;;;;;;1.85;0.55;;;17.60;99.90;;;;;;4976501;28;20070;-71
2022/10/03 05:20:54;;;;;;;0.47;0.32;;;17.50;99.90;;;;;;4977210;28;20126;-71
2022/10/03 05:23:52;;;;;;;1.13;0.50;;;17.40;99.90;;;;;;4976607;28;20049;-71
2022/10/03 05:26:41;;;;;;;1.45;0.40;;;17.30;99.90;;;;;;4976620;28;20480;-70
2022/10/03 05:29:20;;;;;;;0.28;0.22;;;17.40;99.90;;;;;;4976299;28;20039;-71
2022/10/03 05:32:03;;;;;;;0.93;0.40;;;17.30;99.90;;;;;;4976332;28;20535;-70
2022/10/03 05:34:58;;;;;;;4.05;0.40;;;17.40;99.90;;;;;;4976461;28;20041;-70
2022/10/03 05:37:44;;;;;;;1.08;0.30;;;17.40;99.90;;;;;;4991260;28;20034;-70
2022/10/03 05:40:25;;;;;;;0.40;0.30;;;17.50;99.90;;;;;;4976294;28;20034;-70
2022/10/03 05:43:00;;;;;;;1.23;0.30;;;17.40;99.90;;;;;;4976292;28;20109;-71
2022/10/03 05:45:52;;;;;;;3.33;0.50;;;17.20;99.90;;;;;;4976090;28;20034;-70
2022/10/03 05:48:37;;;;;;;0.98;0.30;;;17.10;99.90;;;;;;4975978;28;20495;-71
2022/10/03 05:51:12;;;;;;;1.52;0.38;;;16.90;99.90;;;;;;4976009;28;20058;-71
2022/10/03 05:54:06;;;;;;;0.75;0.40;;;16.90;99.90;;;;;;4976087;28;20106;-70
2022/10/03 05:56:54;;;;;;;0.93;0.32;;;16.70;99.90;;;;;;4978015;28;20041;-70
2022/10/03 05:59:50;;;;;;;0.60;0.43;;;16.60;99.90;;;;;;4994628;28;20022;-71
2022/10/03 06:02:56;;;;;;;2.20;0.75;;;16.40;99.90;;;;;;4993824;28;20045;-71
2022/10/03 06:05:35;;;;;;;0.68;0.40;;;16.30;99.90;;;;;;4994998;28;20396;-72
2022/10/03 06:08:06;;;;;;;0.52;0.30;;;16.20;99.90;;;;;;4995219;28;20030;-72
2022/10/03 06:11:01;;;;;;;1.38;0.50;;;16.20;99.90;;;;;;4994946;28;20033;-71
2022/10/03 06:13:46;;;;;;;1.50;0.50;;;16.20;99.90;;;;;;4995104;28;20033;-71
2022/10/03 06:16:32;;;;;;;0.73;0.30;;;16.30;99.90;;;;;;4994882;28;20026;-70
2022/10/03 06:19:11;;;;;;;0.80;0.40;;;16.40;99.90;;;;;;4994843;28;20146;-70
2022/10/03 06:21:59;;;;;;;0.88;0.52;;;16.40;99.90;;;;;;4994988;28;20299;-71
2022/10/03 06:24:38;;;;;;;1.08;0.30;;;16.40;99.90;;;;;;4994703;28;20041;-70
2022/10/03 06:27:29;;;;;;;0.60;0.20;;;16.40;99.90;;;;;;4995295;28;20030;-70
2022/10/03 06:30:11;;;;;;;2.35;0.40;;;16.30;99.90;;;;;;4966190;28;20042;-71
2022/10/03 06:33:02;;;;;;;3.67;0.30;;;16.30;99.90;;;;;;4994563;28;20034;-71
2022/10/03 06:35:51;;;;;;;0.82;0.38;;;16.30;99.90;;;;;;4993468;28;20033;-70
2022/10/03 06:38:40;;;;;;;1.25;0.30;;;16.20;99.90;;;;;;4993377;28;20033;-70
2022/10/03 06:41:22;;;;;;;1.20;0.30;;;16.10;99.90;;;;;;4994524;28;20435;-70
2022/10/03 06:44:14;;;;;;;0.60;0.30;;;16.00;99.90;;;;;;4994817;28;20434;-70
2022/10/03 06:47:03;;;;;;;1.50;0.88;;;15.80;99.90;;;;;;4994532;28;20486;-71
2022/10/03 06:50:07;;;;;;;1.73;0.43;;;15.70;99.90;;;;;;4994509;28;20030;-70
2022/10/03 06:53:22;;;;;;;0.63;0.30;;;15.50;99.90;;;;;;4994342;28;20026;-70
2022/10/03 06:56:01;;;;;;;1.05;0.38;;;15.40;99.90;;;;;;4949693;28;20113;-70
2022/10/03 06:58:57;;;;;;;5.20;0.38;;;15.30;99.90;;;;;;4994163;28;20049;-69
2022/10/03 07:01:44;;;;;;;0.70;0.40;;;15.20;99.90;;;;;;4994197;28;20198;-71
2022/10/03 07:04:23;;;;;;;1.60;0.30;;;15.20;99.90;;;;;;4994627;28;20761;-72
2022/10/03 07:07:26;;;;;;;2.05;0.43;;;15.00;99.90;;;;;;4994278;28;20032;-70
2022/10/03 07:10:16;;;;;;;1.70;0.38;;;15.00;99.90;;;;;;4994257;28;20034;-72
2022/10/03 07:13:08;;;;;;;1.40;0.30;;;15.00;99.90;;;;;;4994808;28;20023;-72
2022/10/03 07:16:26;;;;;;;2.42;0.40;;;15.00;99.90;;;;;;4993777;28;20029;-72
2022/10/03 07:19:06;;;;;;;0.80;0.43;;;14.90;99.90;;;;;;4963109;28;20046;-71
2022/10/03 07:22:09;;;;;;;1.05;0.35;;;14.90;99.90;;;;;;4982753;28;20031;-72
2022/10/03 07:24:57;;;;;;;1.05;0.32;;;14.90;99.90;;;;;;4984675;28;20030;-72
2022/10/03 07:27:40;;;;;;;2.90;0.65;;;14.90;99.90;;;;;;4984072;28;20061;-69
2022/10/03 07:30:10;;;;;;;3.22;0.35;;;14.90;99.90;;;;;;4984213;28;20054;-69
2022/10/03 07:32:53;;;;;;;2.38;0.35;;;14.90;99.90;;;;;;4983161;28;20029;-69
2022/10/03 07:39:27;;;;;;;1.48;0.32;;;14.80;99.90;;;;;;4956884;28;20037;-69
2022/10/03 07:42:25;;;;;;;3.72;0.40;;;14.80;99.90;;;;;;4986856;28;20496;-69
2022/10/03 07:45:01;;;;;;;1.33;0.40;;;14.70;99.90;;;;;;4989562;28;20476;-69
2022/10/03 07:47:47;;;;;;;0.85;0.40;;;14.60;99.90;;;;;;4989563;28;20026;-69
2022/10/03 07:50:51;;;;;;;1.73;0.82;;;14.60;99.90;;;;;;4989927;28;20015;-69
2022/10/03 07:53:36;;;;;;;2.50;0.40;;;14.50;99.90;;;;;;4990701;28;20072;-69
2022/10/03 07:56:31;;;;;;;2.87;0.40;;;14.40;99.90;;;;;;4989036;28;20073;-69
2022/10/03 07:59:13;;;;;;;1.00;0.57;;;14.30;99.90;;;;;;4989844;28;20391;-69
2022/10/03 08:01:49;;;;;;;0.73;0.30;;;14.20;99.90;;;;;;4979339;28;20025;-69
2022/10/03 08:04:53;;;;;;;0.63;0.40;;;14.10;99.90;;;;;;4979416;28;20122;-69
2022/10/03 08:07:29;;;;;;;1.88;0.40;;;14.10;99.90;;;;;;4977912;28;20023;-70
2022/10/03 08:10:31;;;;;;;2.75;0.73;;;13.90;99.90;;;;;;4976925;28;20019;-69
2022/10/03 08:13:24;;;;;;;3.47;0.52;;;13.80;99.90;;;;;;4969829;28;20030;-69
2022/10/03 08:16:29;;;;;;;0.50;0.30;;;13.70;99.90;;;;;;4976462;28;20081;-69
2022/10/03 08:19:27;;;;;;;1.30;0.35;;;13.70;99.90;;;;;;4978073;28;20030;-69
2022/10/03 08:22:19;;;;;;;1.25;0.50;;;13.60;99.90;;;;;;4977305;28;20027;-70
2022/10/03 08:25:07;;;;;;;2.55;0.90;;;13.50;99.90;;;;;;4992668;28;20045;-70
2022/10/03 08:28:02;;;;;;;2.47;0.70;;;13.40;99.90;;;;;;4995797;28;20061;-68
2022/10/03 08:31:05;;;;;;;4.32;0.70;;;13.40;99.90;;;;;;4994735;28;20054;-69
2022/10/03 08:34:09;;;;;;;1.98;0.70;;;13.30;99.90;;;;;;4995673;28;20018;-70
2022/10/03 08:37:12;;;;;;;1.73;0.40;;;13.20;99.90;;;;;;4988255;28;20374;-69
2022/10/03 08:39:43;;;;;;;3.22;0.70;;;13.20;99.90;;;;;;4979439;28;20023;-70
2022/10/03 08:42:51;;;;;;;1.73;0.70;;;13.10;99.90;;;;;;4977442;28;20022;-69
2022/10/03 08:45:36;;;;;;;3.00;1.05;;;13.00;99.90;;;;;;4977769;28;20066;-69
2022/10/03 08:48:31;;;;;;;3.30;0.82;;;12.90;99.90;;;;;;4977276;28;20090;-69
2022/10/03 08:51:10;;;;;;;1.02;0.50;;;12.90;99.90;;;;;;4976398;28;20389;-70
2022/10/03 08:54:09;;;;;;;2.08;0.65;;;12.90;99.90;;;;;;4974455;28;20073;-70
2022/10/03 08:56:58;;;;;;;0.50;0.35;;;12.80;99.90;;;;;;4970725;28;20039;-70
2022/10/03 08:59:56;;;;;;;2.47;0.75;;;12.80;99.90;;;;;;4978047;28;20027;-73
2022/10/03 09:02:33;;;;;;;1.30;0.75;;;12.80;99.90;;;;;;4979833;28;20093;-73
2022/10/03 09:05:32;;;;;;;1.73;0.60;;;12.80;99.90;;;;;;4995638;28;20031;-72
2022/10/03 09:08:33;;;;;;;1.35;0.50;;;12.70;99.90;;;;;;4985147;28;20033;-70
2022/10/03 09:11:32;;;;;;;2.60;0.93;;;12.70;99.90;;;;;;4995786;28;20475;-70
2022/10/03 09:14:17;;;;;;;0.85;0.40;;;12.70;99.90;;;;;;4960371;28;20042;-67
2022/10/03 09:16:58;;;;;;;3.42;0.80;;;12.60;99.90;;;;;;4992672;28;20026;-71
2022/10/03 09:19:54;;;;;;;1.67;0.77;;;12.60;99.90;;;;;;4993304;28;20019;-69
2022/10/03 09:22:54;;;;;;;1.85;1.02;;;12.50;99.90;;;;;;4994233;28;20116;-70
2022/10/03 09:25:29;;;;;;;1.55;0.50;;;12.50;99.90;;;;;;4993838;28;20108;-70
2022/10/03 09:28:25;;;;;;;1.58;0.60;;;12.50;99.90;;;;;;4994745;28;20033;-73
2022/10/03 09:31:14;;;;;;;1.20;0.60;;;12.50;99.90;;;;;;4994729;28;20049;-73
2022/10/03 09:34:00;;;;;;;3.30;0.73;;;12.50;99.90;;;;;;4995026;28;20030;-72
2022/10/03 09:37:14;;;;;;;2.03;0.70;;;12.40;99.90;;;;;;4994471;28;20023;-75
2022/10/03 09:40:13;;;;;;;1.52;0.70;;;12.40;99.90;;;;;;4995673;28;20105;-74
2022/10/03 09:43:21;;;;;;;1.90;0.70;;;12.40;99.90;;;;;;4975469;28;20491;-73
2022/10/03 09:46:05;;;;;;;2.97;0.68;;;12.40;99.90;;;;;;4987493;28;20047;-74
2022/10/03 09:48:47;;;;;;;1.48;0.65;;;12.30;99.90;;;;;;4995752;28;20029;-71
2022/10/03 09:51:45;;;;;;;2.17;0.52;;;12.30;99.90;;;;;;4995617;28;20383;-71
2022/10/03 09:54:34;;;;;;;1.08;0.82;;;12.20;99.90;;;;;;4994793;28;20030;-74
2022/10/03 09:57:09;;;;;;;3.10;0.70;;;12.10;99.90;;;;;;4993620;28;20033;-71
2022/10/03 09:59:57;;;;;;;1.58;0.35;;;12.10;99.90;;;;;;4995068;28;20027;-74
2022/10/03 10:02:50;;;;;;;5.80;0.73;;;12.10;99.90;;;;;;4995149;28;20088;-75
2022/10/03 10:05:54;;;;;;;1.45;0.80;;;12.10;99.90;;;;;;4995225;28;20439;-74
2022/10/03 10:08:39;;;;;;;1.08;0.50;;;12.10;99.90;;;;;;4995073;28;20499;-72
2022/10/03 10:11:18;;;;;;;2.30;0.70;;;12.00;99.90;;;;;;4995183;28;20091;-72
2022/10/03 10:14:09;;;;;;;2.28;0.60;;;12.00;99.90;;;;;;4995669;28;20034;-77
2022/10/03 10:17:05;;;;;;;1.35;0.70;;;11.90;99.90;;;;;;4994843;28;20025;-72
2022/10/03 10:19:51;;;;;;;1.25;0.55;;;11.90;99.90;;;;;;4993902;28;20077;-71
2022/10/03 10:22:18;;;;;;;1.73;0.85;;;11.90;99.90;;;;;;4994302;28;20094;-82
2022/10/03 10:25:12;;;;;;;3.70;1.13;;;11.90;99.90;;;;;;4997604;28;20080;-80
2022/10/03 10:28:01;;;;;;;2.10;0.63;;;11.90;99.90;;;;;;4997087;28;20077;-74
2022/10/03 10:30:53;;;;;;;1.17;0.57;;;11.90;99.90;;;;;;4990476;28;20054;-77
2022/10/03 10:33:53;;;;;;;2.65;0.50;;;11.90;99.90;;;;;;4992918;28;20407;-74
2022/10/03 10:36:41;;;;;;;2.60;0.65;;;11.90;99.90;;;;;;4995812;28;20025;-74
2022/10/03 10:39:27;;;;;;;1.58;0.60;;;11.90;99.90;;;;;;4994861;28;20014;-73
2022/10/03 10:42:13;;;;;;;4.55;0.70;;;11.90;99.90;;;;;;4997101;28;20034;-76
2022/10/03 10:45:13;;;;;;;1.13;0.55;;;11.90;99.90;;;;;;4993977;28;20037;-78
2022/10/03 10:48:20;;;;;;;1.38;0.47;;;11.90;99.90;;;;;;4993629;28;20085;-75
2022/10/03 10:51:29;;;;;;;4.95;1.00;;;11.80;99.90;;;;;;4995094;28;20050;-72
2022/10/03 10:54:21;;;;;;;1.08;0.50;;;11.80;99.90;;;;;;4994406;28;20033;-74
2022/10/03 10:57:24;;;;;;;3.67;0.80;;;11.80;99.90;;;;;;4980736;28;20027;-73
2022/10/03 11:00:23;;;;;;;1.60;0.43;;;11.70;99.90;;;;;;4975118;28;20118;-78
2022/10/03 11:03:14;;;;;;;1.52;0.60;;;11.70;99.90;;;;;;4974853;28;20023;-74
2022/10/03 11:06:51;;;;;;;1.95;0.60;;;11.60;99.90;;;;;;4974411;28;20461;-74
2022/10/03 11:09:37;;;;;;;0.93;0.47;;;11.70;99.90;;;;;;4952139;28;20039;-75
2022/10/03 11:12:25;;;;;;;1.45;0.70;;;11.60;99.90;;;;;;5013812;28;20136;-74
2022/10/03 11:15:29;;;;;;;1.48;0.70;;;11.50;99.90;;;;;;5013686;28;20545;-72
2022/10/03 11:18:15;;;;;;;1.60;0.70;;;11.50;99.90;;;;;;5013283;28;20029;-72
2022/10/03 11:21:06;;;;;;;4.50;0.65;;;11.60;99.90;;;;;;5013701;28;20026;-77
2022/10/03 11:23:51;;;;;;;3.13;0.70;;;11.50;99.90;;;;;;5013944;28;20022;-74
2022/10/03 11:26:54;;;;;;;1.27;0.70;;;11.50;99.90;;;;;;5012296;28;20034;-76
2022/10/03 11:29:57;;;;;;;1.42;0.52;;;11.50;99.90;;;;;;4994144;28;20768;-73
2022/10/03 11:32:48;;;;;;;1.42;0.70;;;11.40;99.90;;;;;;4993880;28;20249;-73
2022/10/03 11:35:53;;;;;;;1.02;0.60;;;11.50;99.90;;;;;;4973299;28;20023;-70
2022/10/03 11:38:28;;;;;;;5.15;0.77;;;11.50;99.90;;;;;;4956486;28;20034;-72
2022/10/03 11:41:37;;;;;;;3.25;0.70;;;11.50;99.90;;;;;;4974505;28;20101;-73
2022/10/03 11:44:28;;;;;;;1.38;0.73;;;11.50;99.90;;;;;;4973350;28;20082;-76
2022/10/03 11:47:14;;;;;;;2.20;0.63;;;11.50;99.90;;;;;;4974442;28;20113;-72
2022/10/03 11:50:06;;;;;;;1.95;1.20;;;11.50;99.90;;;;;;4974566;28;20019;-76
2022/10/03 11:52:38;;;;;;;1.17;0.65;;;11.50;99.90;;;;;;4974429;28;20472;-77
2022/10/03 11:55:26;;;;;;;2.47;0.45;;;11.40;99.90;;;;;;4974388;28;20035;-79
2022/10/03 11:58:05;;;;;;;2.08;0.80;;;11.50;99.90;;;;;;4974164;28;20035;-76
2022/10/03 12:00:36;;;;;;;1.13;0.63;;;11.50;99.90;;;;;;4974190;28;20026;-77
2022/10/03 12:03:21;;;;;;;2.08;0.73;;;11.40;99.90;;;;;;4979069;28;20031;-77
2022/10/03 12:09:16;;;;;;;0.90;0.70;;;11.40;99.90;;;;;;4995594;28;20053;-74
2022/10/03 12:12:16;;;;;;;5.57;0.90;;;11.40;99.90;;;;;;4992943;28;20113;-73
2022/10/03 12:14:48;;;;;;;1.85;0.73;;;11.40;99.90;;;;;;4985159;28;20026;-76
2022/10/03 12:17:31;;;;;;;5.10;1.30;;;11.40;99.90;;;;;;4992995;28;20041;-74
2022/10/03 12:20:21;;;;;;;2.47;1.10;;;11.40;99.90;;;;;;4989940;28;20027;-73
2022/10/03 12:23:04;;;;;;;6.97;1.00;;;11.30;99.90;;;;;;4990414;28;20022;-74
2022/10/03 12:25:40;;;;;;;2.63;0.82;;;11.40;99.90;;;;;;4981417;28;20052;-74
2022/10/03 12:28:25;;;;;;;0.90;0.50;;;11.30;99.90;;;;;;4983794;28;20015;-74
2022/10/03 12:31:17;;;;;;;1.65;0.80;;;11.30;99.90;;;;;;4987156;28;20376;-74
2022/10/03 12:34:11;;;;;;;2.78;1.42;;;11.30;99.90;;;;;;4986322;28;20475;-74
2022/10/03 12:37:18;;;;;;;3.92;0.68;;;11.30;99.90;;;;;;4985348;28;20102;-73
2022/10/03 12:40:09;;;;;;;1.08;0.57;;;11.30;99.90;;;;;;4995921;28;20021;-73
2022/10/03 12:43:03;;;;;;;2.00;1.00;;;11.30;99.90;;;;;;4994513;28;20045;-73
2022/10/03 12:46:00;;;;;;;1.48;0.82;;;11.30;99.90;;;;;;4994533;28;20122;-72
2022/10/03 12:48:44;;;;;;;5.03;0.80;;;11.30;99.90;;;;;;4984512;28;20491;-75
2022/10/03 12:51:25;;;;;;;2.05;0.50;;;11.30;99.90;;;;;;4987359;28;20034;-74
2022/10/03 12:54:17;;;;;;;0.90;0.52;;;11.30;99.90;;;;;;4987351;28;20023;-72
2022/10/03 12:57:02;;;;;;;2.97;0.77;;;11.30;99.90;;;;;;4976983;28;20099;-73
2022/10/03 13:00:14;;;;;;;1.98;0.60;;;11.30;99.90;;;;;;4977191;28;20150;-73
2022/10/03 13:03:11;;;;;;;1.23;0.65;;;11.30;99.90;;;;;;4954329;28;20034;-73
2022/10/03 13:05:55;;;;;;;1.20;0.68;;;11.30;99.90;;;;;;4949582;28;20081;-71
2022/10/03 13:08:47;;;;;;;1.10;0.60;;;11.30;99.90;;;;;;4976961;28;20022;-74
2022/10/03 13:11:37;;;;;;;1.60;0.90;;;11.20;99.90;;;;;;4976690;28;20037;-75
2022/10/03 13:14:19;;;;;;;2.58;0.40;;;11.20;99.90;;;;;;4976824;28;20556;-74
2022/10/03 13:17:07;;;;;;;0.82;0.50;;;11.20;99.90;;;;;;4976816;28;20452;-71
2022/10/03 13:19:54;;;;;;;3.28;0.70;;;11.20;99.90;;;;;;4977221;28;20019;-71
2022/10/03 13:22:28;;;;;;;1.08;0.60;;;11.20;99.90;;;;;;4976801;28;20038;-72
2022/10/03 13:25:14;;;;;;;0.52;0.40;;;11.20;99.90;;;;;;4976687;28;20038;-73
2022/10/03 13:28:07;;;;;;;2.05;0.60;;;11.20;99.90;;;;;;4976563;28;20045;-74
2022/10/03 13:31:02;;;;;;;0.95;0.40;;;11.20;99.90;;;;;;4975662;28;20094;-71
2022/10/03 13:33:35;;;;;;;3.20;0.88;;;11.20;99.90;;;;;;4976658;28;20108;-72
2022/10/03 13:36:25;;;;;;;0.63;0.40;;;11.20;99.90;;;;;;4976538;28;20027;-72
2022/10/03 13:39:10;;;;;;;1.85;1.10;;;11.20;99.90;;;;;;4978639;28;20038;-72
2022/10/03 13:41:48;;;;;;;2.30;0.47;;;11.20;99.90;;;;;;4995792;28;20034;-71
2022/10/03 13:44:35;;;;;;;1.15;0.45;;;11.10;99.90;;;;;;4995726;28;20042;-71
2022/10/03 13:47:18;;;;;;;5.22;0.63;;;11.10;99.90;;;;;;4995590;28;20019;-71
2022/10/03 13:49:51;;;;;;;2.60;1.02;;;11.10;99.90;;;;;;4995538;28;20034;-74
2022/10/03 13:52:33;;;;;;;2.08;0.70;;;11.10;99.90;;;;;;4995538;28;20022;-71
2022/10/03 13:55:16;;;;;;;1.17;0.50;;;11.10;99.90;;;;;;4995994;28;20030;-70
2022/10/03 13:58:06;;;;;;;1.30;0.57;;;11.10;99.90;;;;;;4995425;28;20034;-70
2022/10/03 14:01:12;;;;;;;0.80;0.45;;;11.10;99.90;;;;;;4984351;28;20034;-71
2022/10/03 14:04:10;;;;;;;2.08;1.02;;;11.10;99.90;;;;;;4995624;28;20383;-71
2022/10/03 14:06:58;;;;;;;3.03;0.60;;;11.10;99.90;;;;;;4995325;28;20027;-72
2022/10/03 14:09:51;;;;;;;1.00;0.60;;;11.10;99.90;;;;;;4995145;28;20460;-71
2022/10/03 14:12:35;;;;;;;1.10;0.57;;;11.00;99.90;;;;;;4995161;28;20097;-72
2022/10/03 14:15:35;;;;;;;0.40;0.38;;;11.00;99.90;;;;;;4995332;28;20049;-72
2022/10/03 14:18:29;;;;;;;1.60;0.45;;;11.00;99.90;;;;;;4992142;28;20030;-72
2022/10/03 14:21:23;;;;;;;3.65;0.60;;;10.90;99.90;;;;;;4986816;28;20042;-72
2022/10/03 14:24:27;;;;;;;7.78;0.60;;;11.00;99.90;;;;;;4994886;28;20018;-72
2022/10/03 14:27:12;;;;;;;2.05;0.70;;;10.90;99.90;;;;;;4976955;28;20122;-72
2022/10/03 14:29:42;;;;;;;1.00;0.50;;;10.90;99.90;;;;;;4994814;28;20046;-71
2022/10/03 14:32:31;;;;;;;1.13;0.50;;;10.90;99.90;;;;;;4994518;28;20030;-72
2022/10/03 14:35:14;;;;;;;4.18;0.70;;;10.90;99.90;;;;;;4994825;28;20018;-72
2022/10/03 14:38:11;;;;;;;4.15;0.63;;;10.90;99.90;;;;;;4994726;28;20034;-71
2022/10/03 14:41:13;;;;;;;2.83;1.10;;;10.90;99.90;;;;;;4994384;28;20041;-71
2022/10/03 14:43:46;;;;;;;4.82;1.23;;;10.80;99.90;;;;;;4983358;28;20415;-71
2022/10/03 14:46:15;;;;;;;2.08;0.70;;;10.70;99.90;;;;;;4994437;28;20031;-71
2022/10/03 14:48:49;;;;;;;1.67;0.75;;;10.70;99.90;;;;;;4994549;28;20030;-71
2022/10/03 14:51:28;;;;;;;0.82;0.57;;;10.70;99.90;;;;;;4993675;28;20022;-72